sensor_id;sensor_type;location;lat;lon;timestamp;P1;durP1;ratioP1;P2;durP2;ratioP2
19151;SDS011;9708;53.114;9.388;2022-09-12T00:00:40;0.63;;;0.50;;
19151;SDS011;9708;53.114;9.388;2022-09-12T00:03:07;0.80;;;0.70;;
19151;SDS011;9708;53.114;9.388;2022-09-12T00:05:39;0.40;;;0.40;;
19151;SDS011;9708;53.114;9.388;2022-09-12T00:08:06;0.70;;;0.70;;
19151;SDS011;9708;53.114;9.388;2022-09-12T00:10:35;0.77;;;0.77;;
19151;SDS011;9708;53.114;9.388;2022-09-12T00:13:03;0.50;;;0.50;;
19151;SDS011;9708;53.114;9.388;2022-09-12T00:15:29;0.60;;;0.60;;
19151;SDS011;9708;53.114;9.388;2022-09-12T00:17:57;0.87;;;0.67;;
19151;SDS011;9708;53.114;9.388;2022-09-12T00:20:24;0.70;;;0.70;;
19151;SDS011;9708;53.114;9.388;2022-09-12T00:22:51;0.60;;;0.60;;
19151;SDS011;9708;53.114;9.388;2022-09-12T00:25:17;0.60;;;0.60;;
19151;SDS011;9708;53.114;9.388;2022-09-12T00:27:44;0.63;;;0.63;;
19151;SDS011;9708;53.114;9.388;2022-09-12T00:30:11;0.70;;;0.70;;
19151;SDS011;9708;53.114;9.388;2022-09-12T00:32:38;0.70;;;0.70;;
19151;SDS011;9708;53.114;9.388;2022-09-12T00:35:07;0.80;;;0.80;;
19151;SDS011;9708;53.114;9.388;2022-09-12T00:37:34;0.60;;;0.60;;
19151;SDS011;9708;53.114;9.388;2022-09-12T00:40:01;0.70;;;0.70;;
19151;SDS011;9708;53.114;9.388;2022-09-12T00:42:28;0.50;;;0.50;;
19151;SDS011;9708;53.114;9.388;2022-09-12T00:44:54;1.57;;;1.00;;
19151;SDS011;9708;53.114;9.388;2022-09-12T00:47:23;0.73;;;0.73;;
19151;SDS011;9708;53.114;9.388;2022-09-12T00:49:54;0.60;;;0.60;;
19151;SDS011;9708;53.114;9.388;2022-09-12T00:52:27;0.60;;;0.60;;
19151;SDS011;9708;53.114;9.388;2022-09-12T00:54:57;0.93;;;0.70;;
19151;SDS011;9708;53.114;9.388;2022-09-12T00:57:28;0.70;;;0.70;;
19151;SDS011;9708;53.114;9.388;2022-09-12T01:00:00;0.70;;;0.60;;
19151;SDS011;9708;53.114;9.388;2022-09-12T01:02:35;0.83;;;0.80;;
19151;SDS011;9708;53.114;9.388;2022-09-12T01:05:02;0.70;;;0.60;;
19151;SDS011;9708;53.114;9.388;2022-09-12T01:07:32;0.87;;;0.87;;
19151;SDS011;9708;53.114;9.388;2022-09-12T01:10:00;0.63;;;0.53;;
19151;SDS011;9708;53.114;9.388;2022-09-12T01:12:27;0.73;;;0.73;;
19151;SDS011;9708;53.114;9.388;2022-09-12T01:14:55;0.77;;;0.70;;
19151;SDS011;9708;53.114;9.388;2022-09-12T01:17:22;1.20;;;0.77;;
19151;SDS011;9708;53.114;9.388;2022-09-12T01:26:20;0.80;;;0.80;;
19151;SDS011;9708;53.114;9.388;2022-09-12T01:29:13;1.20;;;0.80;;
19151;SDS011;9708;53.114;9.388;2022-09-12T01:31:54;0.60;;;0.47;;
19151;SDS011;9708;53.114;9.388;2022-09-12T01:34:31;0.57;;;0.57;;
19151;SDS011;9708;53.114;9.388;2022-09-12T01:37:06;0.90;;;0.90;;
19151;SDS011;9708;53.114;9.388;2022-09-12T01:39:39;0.80;;;0.80;;
19151;SDS011;9708;53.114;9.388;2022-09-12T01:42:16;0.67;;;0.67;;
19151;SDS011;9708;53.114;9.388;2022-09-12T01:44:49;1.17;;;1.17;;
19151;SDS011;9708;53.114;9.388;2022-09-12T01:47:29;0.60;;;0.60;;
19151;SDS011;9708;53.114;9.388;2022-09-12T01:50:05;0.50;;;0.50;;
19151;SDS011;9708;53.114;9.388;2022-09-12T01:52:34;0.63;;;0.63;;
19151;SDS011;9708;53.114;9.388;2022-09-12T01:55:09;0.67;;;0.67;;
19151;SDS011;9708;53.114;9.388;2022-09-12T01:57:41;0.70;;;0.70;;
19151;SDS011;9708;53.114;9.388;2022-09-12T02:00:12;0.60;;;0.60;;
19151;SDS011;9708;53.114;9.388;2022-09-12T02:02:41;0.80;;;0.80;;
19151;SDS011;9708;53.114;9.388;2022-09-12T02:05:13;1.33;;;0.83;;
19151;SDS011;9708;53.114;9.388;2022-09-12T02:07:46;0.53;;;0.53;;
19151;SDS011;9708;53.114;9.388;2022-09-12T02:10:17;0.73;;;0.73;;
19151;SDS011;9708;53.114;9.388;2022-09-12T02:12:47;0.63;;;0.63;;
19151;SDS011;9708;53.114;9.388;2022-09-12T02:15:19;0.50;;;0.50;;
19151;SDS011;9708;53.114;9.388;2022-09-12T02:17:54;1.03;;;1.03;;
19151;SDS011;9708;53.114;9.388;2022-09-12T02:20:24;0.40;;;0.40;;
19151;SDS011;9708;53.114;9.388;2022-09-12T02:22:53;0.47;;;0.47;;
19151;SDS011;9708;53.114;9.388;2022-09-12T02:25:21;0.80;;;0.80;;
19151;SDS011;9708;53.114;9.388;2022-09-12T02:27:52;1.00;;;1.00;;
19151;SDS011;9708;53.114;9.388;2022-09-12T02:30:23;1.50;;;0.60;;
19151;SDS011;9708;53.114;9.388;2022-09-12T02:32:55;1.03;;;0.90;;
19151;SDS011;9708;53.114;9.388;2022-09-12T02:35:29;0.60;;;0.60;;
19151;SDS011;9708;53.114;9.388;2022-09-12T02:38:01;0.77;;;0.73;;
19151;SDS011;9708;53.114;9.388;2022-09-12T02:40:31;0.83;;;0.80;;
19151;SDS011;9708;53.114;9.388;2022-09-12T02:42:59;0.70;;;0.70;;
19151;SDS011;9708;53.114;9.388;2022-09-12T02:45:27;0.83;;;0.83;;
19151;SDS011;9708;53.114;9.388;2022-09-12T02:47:57;0.70;;;0.60;;
19151;SDS011;9708;53.114;9.388;2022-09-12T02:50:29;0.60;;;0.60;;
19151;SDS011;9708;53.114;9.388;2022-09-12T02:52:57;0.90;;;0.73;;
19151;SDS011;9708;53.114;9.388;2022-09-12T02:55:28;2.43;;;1.73;;
19151;SDS011;9708;53.114;9.388;2022-09-12T02:57:56;0.97;;;0.97;;
19151;SDS011;9708;53.114;9.388;2022-09-12T03:00:23;0.80;;;0.80;;
19151;SDS011;9708;53.114;9.388;2022-09-12T03:02:53;0.60;;;0.60;;
19151;SDS011;9708;53.114;9.388;2022-09-12T03:05:32;0.60;;;0.60;;
19151;SDS011;9708;53.114;9.388;2022-09-12T03:08:11;0.70;;;0.70;;
19151;SDS011;9708;53.114;9.388;2022-09-12T03:10:57;0.60;;;0.60;;
19151;SDS011;9708;53.114;9.388;2022-09-12T03:13:49;0.50;;;0.50;;
19151;SDS011;9708;53.114;9.388;2022-09-12T03:16:26;0.70;;;0.70;;
19151;SDS011;9708;53.114;9.388;2022-09-12T03:19:01;0.60;;;0.60;;
19151;SDS011;9708;53.114;9.388;2022-09-12T03:21:32;0.70;;;0.70;;
19151;SDS011;9708;53.114;9.388;2022-09-12T03:24:08;0.97;;;0.97;;
19151;SDS011;9708;53.114;9.388;2022-09-12T03:26:39;1.00;;;0.73;;
19151;SDS011;9708;53.114;9.388;2022-09-12T03:29:11;0.60;;;0.60;;
19151;SDS011;9708;53.114;9.388;2022-09-12T03:31:46;0.80;;;0.80;;
19151;SDS011;9708;53.114;9.388;2022-09-12T03:34:16;1.67;;;0.93;;
19151;SDS011;9708;53.114;9.388;2022-09-12T03:36:43;1.27;;;1.13;;
19151;SDS011;9708;53.114;9.388;2022-09-12T03:39:10;1.13;;;1.13;;
19151;SDS011;9708;53.114;9.388;2022-09-12T03:41:37;0.70;;;0.70;;
19151;SDS011;9708;53.114;9.388;2022-09-12T03:44:04;1.00;;;1.00;;
19151;SDS011;9708;53.114;9.388;2022-09-12T03:46:31;0.80;;;0.80;;
19151;SDS011;9708;53.114;9.388;2022-09-12T03:48:58;0.80;;;0.80;;
19151;SDS011;9708;53.114;9.388;2022-09-12T03:51:26;0.60;;;0.60;;
19151;SDS011;9708;53.114;9.388;2022-09-12T03:53:53;1.33;;;0.93;;
19151;SDS011;9708;53.114;9.388;2022-09-12T03:56:20;1.40;;;1.00;;
19151;SDS011;9708;53.114;9.388;2022-09-12T03:58:47;0.97;;;0.87;;
19151;SDS011;9708;53.114;9.388;2022-09-12T04:01:14;1.17;;;1.17;;
19151;SDS011;9708;53.114;9.388;2022-09-12T04:03:43;0.63;;;0.60;;
19151;SDS011;9708;53.114;9.388;2022-09-12T04:06:12;0.57;;;0.57;;
19151;SDS011;9708;53.114;9.388;2022-09-12T04:08:42;0.60;;;0.60;;
19151;SDS011;9708;53.114;9.388;2022-09-12T04:11:10;1.03;;;0.80;;
19151;SDS011;9708;53.114;9.388;2022-09-12T04:13:39;0.80;;;0.80;;
19151;SDS011;9708;53.114;9.388;2022-09-12T04:16:06;0.67;;;0.67;;
19151;SDS011;9708;53.114;9.388;2022-09-12T04:18:33;0.90;;;0.90;;
19151;SDS011;9708;53.114;9.388;2022-09-12T04:21:02;0.83;;;0.83;;
19151;SDS011;9708;53.114;9.388;2022-09-12T04:23:30;1.07;;;0.97;;
19151;SDS011;9708;53.114;9.388;2022-09-12T04:25:59;2.63;;;1.53;;
19151;SDS011;9708;53.114;9.388;2022-09-12T04:28:27;0.70;;;0.70;;
19151;SDS011;9708;53.114;9.388;2022-09-12T04:30:54;1.03;;;1.03;;
19151;SDS011;9708;53.114;9.388;2022-09-12T04:33:22;0.67;;;0.67;;
19151;SDS011;9708;53.114;9.388;2022-09-12T04:35:50;0.80;;;0.80;;
19151;SDS011;9708;53.114;9.388;2022-09-12T04:38:17;1.07;;;1.07;;
19151;SDS011;9708;53.114;9.388;2022-09-12T04:40:43;1.00;;;1.00;;
19151;SDS011;9708;53.114;9.388;2022-09-12T04:43:12;1.43;;;1.13;;
19151;SDS011;9708;53.114;9.388;2022-09-12T04:45:38;1.30;;;1.20;;
19151;SDS011;9708;53.114;9.388;2022-09-12T04:48:05;0.77;;;0.77;;
19151;SDS011;9708;53.114;9.388;2022-09-12T04:50:32;1.07;;;0.60;;
19151;SDS011;9708;53.114;9.388;2022-09-12T04:52:58;4.10;;;1.67;;
19151;SDS011;9708;53.114;9.388;2022-09-12T04:55:25;1.23;;;1.23;;
19151;SDS011;9708;53.114;9.388;2022-09-12T04:57:52;1.00;;;1.00;;
19151;SDS011;9708;53.114;9.388;2022-09-12T05:00:20;1.70;;;0.77;;
19151;SDS011;9708;53.114;9.388;2022-09-12T05:02:47;0.90;;;0.90;;
19151;SDS011;9708;53.114;9.388;2022-09-12T05:05:14;0.80;;;0.80;;
19151;SDS011;9708;53.114;9.388;2022-09-12T05:07:41;1.07;;;0.97;;
19151;SDS011;9708;53.114;9.388;2022-09-12T05:10:08;0.73;;;0.73;;
19151;SDS011;9708;53.114;9.388;2022-09-12T05:12:36;1.57;;;1.10;;
19151;SDS011;9708;53.114;9.388;2022-09-12T05:15:03;1.40;;;1.30;;
19151;SDS011;9708;53.114;9.388;2022-09-12T05:17:32;1.60;;;1.50;;
19151;SDS011;9708;53.114;9.388;2022-09-12T05:19:59;1.93;;;1.07;;
19151;SDS011;9708;53.114;9.388;2022-09-12T05:22:26;1.13;;;1.00;;
19151;SDS011;9708;53.114;9.388;2022-09-12T05:24:52;0.90;;;0.90;;
19151;SDS011;9708;53.114;9.388;2022-09-12T05:27:19;3.93;;;1.80;;
19151;SDS011;9708;53.114;9.388;2022-09-12T05:29:46;1.20;;;1.20;;
19151;SDS011;9708;53.114;9.388;2022-09-12T05:32:13;1.50;;;1.30;;
19151;SDS011;9708;53.114;9.388;2022-09-12T05:34:41;0.90;;;0.90;;
19151;SDS011;9708;53.114;9.388;2022-09-12T05:37:07;1.53;;;1.13;;
19151;SDS011;9708;53.114;9.388;2022-09-12T05:39:34;1.07;;;0.90;;
19151;SDS011;9708;53.114;9.388;2022-09-12T05:42:02;1.10;;;1.10;;
19151;SDS011;9708;53.114;9.388;2022-09-12T05:44:30;2.87;;;1.90;;
19151;SDS011;9708;53.114;9.388;2022-09-12T05:46:57;1.67;;;1.57;;
19151;SDS011;9708;53.114;9.388;2022-09-12T05:49:24;0.83;;;0.80;;
19151;SDS011;9708;53.114;9.388;2022-09-12T05:51:52;0.90;;;0.90;;
19151;SDS011;9708;53.114;9.388;2022-09-12T05:54:19;1.03;;;1.00;;
19151;SDS011;9708;53.114;9.388;2022-09-12T05:56:46;1.60;;;1.03;;
19151;SDS011;9708;53.114;9.388;2022-09-12T05:59:14;1.90;;;1.37;;
19151;SDS011;9708;53.114;9.388;2022-09-12T06:01:42;1.07;;;0.87;;
19151;SDS011;9708;53.114;9.388;2022-09-12T06:04:09;3.70;;;1.83;;
19151;SDS011;9708;53.114;9.388;2022-09-12T06:06:38;1.10;;;1.10;;
19151;SDS011;9708;53.114;9.388;2022-09-12T06:09:09;1.20;;;0.93;;
19151;SDS011;9708;53.114;9.388;2022-09-12T06:11:37;2.70;;;1.73;;
19151;SDS011;9708;53.114;9.388;2022-09-12T06:14:06;0.80;;;0.80;;
19151;SDS011;9708;53.114;9.388;2022-09-12T06:16:34;1.23;;;1.20;;
19151;SDS011;9708;53.114;9.388;2022-09-12T06:19:02;2.30;;;1.53;;
19151;SDS011;9708;53.114;9.388;2022-09-12T06:21:31;1.57;;;1.43;;
19151;SDS011;9708;53.114;9.388;2022-09-12T06:23:59;1.57;;;1.27;;
19151;SDS011;9708;53.114;9.388;2022-09-12T06:26:28;2.20;;;1.87;;
19151;SDS011;9708;53.114;9.388;2022-09-12T06:28:55;2.17;;;1.80;;
19151;SDS011;9708;53.114;9.388;2022-09-12T06:31:25;2.13;;;1.57;;
19151;SDS011;9708;53.114;9.388;2022-09-12T06:33:53;2.90;;;1.87;;
19151;SDS011;9708;53.114;9.388;2022-09-12T06:36:23;2.67;;;2.17;;
19151;SDS011;9708;53.114;9.388;2022-09-12T06:38:54;3.97;;;2.27;;
19151;SDS011;9708;53.114;9.388;2022-09-12T06:41:22;2.07;;;1.97;;
19151;SDS011;9708;53.114;9.388;2022-09-12T06:43:51;3.28;;;1.95;;
19151;SDS011;9708;53.114;9.388;2022-09-12T06:46:18;4.10;;;2.17;;
19151;SDS011;9708;53.114;9.388;2022-09-12T06:48:45;2.47;;;2.28;;
19151;SDS011;9708;53.114;9.388;2022-09-12T06:51:12;3.17;;;2.15;;
19151;SDS011;9708;53.114;9.388;2022-09-12T06:53:41;2.85;;;2.05;;
19151;SDS011;9708;53.114;9.388;2022-09-12T06:56:09;2.83;;;2.03;;
19151;SDS011;9708;53.114;9.388;2022-09-12T06:58:37;2.78;;;1.88;;
19151;SDS011;9708;53.114;9.388;2022-09-12T07:01:06;2.67;;;1.85;;
19151;SDS011;9708;53.114;9.388;2022-09-12T07:03:34;2.55;;;2.33;;
19151;SDS011;9708;53.114;9.388;2022-09-12T07:06:02;2.22;;;2.03;;
19151;SDS011;9708;53.114;9.388;2022-09-12T07:08:30;2.88;;;1.92;;
19151;SDS011;9708;53.114;9.388;2022-09-12T07:10:57;2.30;;;2.10;;
19151;SDS011;9708;53.114;9.388;2022-09-12T07:13:25;4.20;;;2.30;;
19151;SDS011;9708;53.114;9.388;2022-09-12T07:15:52;3.97;;;2.90;;
19151;SDS011;9708;53.114;9.388;2022-09-12T07:18:20;3.85;;;2.30;;
19151;SDS011;9708;53.114;9.388;2022-09-12T07:20:47;4.95;;;3.08;;
19151;SDS011;9708;53.114;9.388;2022-09-12T07:23:14;2.88;;;2.03;;
19151;SDS011;9708;53.114;9.388;2022-09-12T07:25:41;4.10;;;2.42;;
19151;SDS011;9708;53.114;9.388;2022-09-12T07:28:08;2.95;;;2.30;;
19151;SDS011;9708;53.114;9.388;2022-09-12T07:30:35;3.88;;;2.83;;
19151;SDS011;9708;53.114;9.388;2022-09-12T07:33:03;2.97;;;2.65;;
19151;SDS011;9708;53.114;9.388;2022-09-12T07:35:32;3.97;;;2.58;;
19151;SDS011;9708;53.114;9.388;2022-09-12T07:38:03;3.67;;;2.55;;
19151;SDS011;9708;53.114;9.388;2022-09-12T07:40:29;5.60;;;2.70;;
19151;SDS011;9708;53.114;9.388;2022-09-12T07:42:56;3.47;;;2.38;;
19151;SDS011;9708;53.114;9.388;2022-09-12T07:45:23;5.05;;;2.67;;
19151;SDS011;9708;53.114;9.388;2022-09-12T07:47:52;6.78;;;3.28;;
19151;SDS011;9708;53.114;9.388;2022-09-12T07:50:19;5.65;;;2.92;;
19151;SDS011;9708;53.114;9.388;2022-09-12T07:52:47;3.63;;;2.05;;
19151;SDS011;9708;53.114;9.388;2022-09-12T07:55:14;4.32;;;2.38;;
19151;SDS011;9708;53.114;9.388;2022-09-12T07:57:41;6.55;;;2.47;;
19151;SDS011;9708;53.114;9.388;2022-09-12T08:00:08;3.38;;;2.50;;
19151;SDS011;9708;53.114;9.388;2022-09-12T08:02:36;4.53;;;2.50;;
19151;SDS011;9708;53.114;9.388;2022-09-12T08:05:03;5.13;;;2.83;;
19151;SDS011;9708;53.114;9.388;2022-09-12T08:07:30;5.13;;;2.58;;
19151;SDS011;9708;53.114;9.388;2022-09-12T08:09:59;6.07;;;3.55;;
19151;SDS011;9708;53.114;9.388;2022-09-12T08:12:26;4.00;;;2.38;;
19151;SDS011;9708;53.114;9.388;2022-09-12T08:14:53;5.28;;;3.50;;
19151;SDS011;9708;53.114;9.388;2022-09-12T08:17:19;5.55;;;3.38;;
19151;SDS011;9708;53.114;9.388;2022-09-12T08:19:46;5.22;;;2.97;;
19151;SDS011;9708;53.114;9.388;2022-09-12T08:22:13;6.25;;;3.67;;
19151;SDS011;9708;53.114;9.388;2022-09-12T08:24:40;8.07;;;3.90;;
19151;SDS011;9708;53.114;9.388;2022-09-12T08:27:09;5.30;;;3.42;;
19151;SDS011;9708;53.114;9.388;2022-09-12T08:29:36;4.43;;;3.03;;
19151;SDS011;9708;53.114;9.388;2022-09-12T08:32:03;7.97;;;3.72;;
19151;SDS011;9708;53.114;9.388;2022-09-12T08:34:30;5.60;;;3.65;;
19151;SDS011;9708;53.114;9.388;2022-09-12T08:36:56;13.20;;;3.90;;
19151;SDS011;9708;53.114;9.388;2022-09-12T08:39:23;4.82;;;3.75;;
19151;SDS011;9708;53.114;9.388;2022-09-12T08:41:54;4.65;;;3.28;;
19151;SDS011;9708;53.114;9.388;2022-09-12T08:44:30;6.32;;;4.15;;
19151;SDS011;9708;53.114;9.388;2022-09-12T08:47:12;6.40;;;3.38;;
19151;SDS011;9708;53.114;9.388;2022-09-12T08:49:47;4.80;;;3.00;;
19151;SDS011;9708;53.114;9.388;2022-09-12T08:52:20;4.22;;;3.15;;
19151;SDS011;9708;53.114;9.388;2022-09-12T08:54:51;11.85;;;3.42;;
19151;SDS011;9708;53.114;9.388;2022-09-12T08:57:19;6.85;;;3.03;;
19151;SDS011;9708;53.114;9.388;2022-09-12T08:59:48;7.90;;;4.05;;
19151;SDS011;9708;53.114;9.388;2022-09-12T09:02:29;7.35;;;3.55;;
19151;SDS011;9708;53.114;9.388;2022-09-12T09:05:12;3.67;;;2.85;;
19151;SDS011;9708;53.114;9.388;2022-09-12T09:08:06;4.22;;;2.50;;
19151;SDS011;9708;53.114;9.388;2022-09-12T09:10:53;5.68;;;2.97;;
19151;SDS011;9708;53.114;9.388;2022-09-12T09:13:32;5.13;;;2.28;;
19151;SDS011;9708;53.114;9.388;2022-09-12T09:16:31;6.90;;;3.97;;
19151;SDS011;9708;53.114;9.388;2022-09-12T09:19:01;8.52;;;4.18;;
19151;SDS011;9708;53.114;9.388;2022-09-12T09:21:32;5.63;;;3.50;;
19151;SDS011;9708;53.114;9.388;2022-09-12T09:24:02;6.10;;;4.10;;
19151;SDS011;9708;53.114;9.388;2022-09-12T09:26:35;6.00;;;4.00;;
19151;SDS011;9708;53.114;9.388;2022-09-12T09:29:10;8.70;;;4.22;;
19151;SDS011;9708;53.114;9.388;2022-09-12T09:31:43;9.18;;;4.50;;
19151;SDS011;9708;53.114;9.388;2022-09-12T09:34:14;8.00;;;4.38;;
19151;SDS011;9708;53.114;9.388;2022-09-12T09:36:47;6.07;;;3.33;;
19151;SDS011;9708;53.114;9.388;2022-09-12T09:39:23;5.20;;;3.17;;
19151;SDS011;9708;53.114;9.388;2022-09-12T09:42:08;5.45;;;3.42;;
19151;SDS011;9708;53.114;9.388;2022-09-12T09:44:42;7.35;;;3.45;;
19151;SDS011;9708;53.114;9.388;2022-09-12T09:47:14;5.95;;;3.58;;
19151;SDS011;9708;53.114;9.388;2022-09-12T09:49:43;5.40;;;3.22;;
19151;SDS011;9708;53.114;9.388;2022-09-12T09:52:12;5.95;;;3.17;;
19151;SDS011;9708;53.114;9.388;2022-09-12T09:54:42;6.40;;;3.72;;
19151;SDS011;9708;53.114;9.388;2022-09-12T09:57:36;7.13;;;4.78;;
19151;SDS011;9708;53.114;9.388;2022-09-12T10:00:21;8.68;;;4.30;;
19151;SDS011;9708;53.114;9.388;2022-09-12T10:02:59;8.57;;;3.90;;
19151;SDS011;9708;53.114;9.388;2022-09-12T10:05:28;8.70;;;4.10;;
19151;SDS011;9708;53.114;9.388;2022-09-12T10:07:57;8.07;;;4.15;;
19151;SDS011;9708;53.114;9.388;2022-09-12T10:10:24;6.78;;;3.80;;
19151;SDS011;9708;53.114;9.388;2022-09-12T10:12:51;4.53;;;3.45;;
19151;SDS011;9708;53.114;9.388;2022-09-12T10:15:33;5.65;;;2.83;;
19151;SDS011;9708;53.114;9.388;2022-09-12T10:18:01;5.30;;;3.33;;
19151;SDS011;9708;53.114;9.388;2022-09-12T10:20:29;8.57;;;3.90;;
19151;SDS011;9708;53.114;9.388;2022-09-12T10:22:58;4.07;;;2.63;;
19151;SDS011;9708;53.114;9.388;2022-09-12T10:25:26;5.88;;;3.42;;
19151;SDS011;9708;53.114;9.388;2022-09-12T10:27:53;4.53;;;2.90;;
19151;SDS011;9708;53.114;9.388;2022-09-12T10:30:23;5.50;;;3.63;;
19151;SDS011;9708;53.114;9.388;2022-09-12T10:32:52;3.55;;;2.33;;
19151;SDS011;9708;53.114;9.388;2022-09-12T10:35:24;5.97;;;3.20;;
19151;SDS011;9708;53.114;9.388;2022-09-12T10:37:55;6.45;;;3.30;;
19151;SDS011;9708;53.114;9.388;2022-09-12T10:40:25;3.20;;;2.72;;
19151;SDS011;9708;53.114;9.388;2022-09-12T10:42:53;5.35;;;2.97;;
19151;SDS011;9708;53.114;9.388;2022-09-12T10:45:23;4.20;;;2.83;;
19151;SDS011;9708;53.114;9.388;2022-09-12T10:47:51;5.80;;;2.92;;
19151;SDS011;9708;53.114;9.388;2022-09-12T10:50:24;4.95;;;2.60;;
19151;SDS011;9708;53.114;9.388;2022-09-12T10:52:53;6.68;;;3.33;;
19151;SDS011;9708;53.114;9.388;2022-09-12T10:55:24;3.10;;;2.28;;
19151;SDS011;9708;53.114;9.388;2022-09-12T10:58:17;4.50;;;2.90;;
19151;SDS011;9708;53.114;9.388;2022-09-12T11:00:56;4.20;;;2.78;;
19151;SDS011;9708;53.114;9.388;2022-09-12T11:03:34;3.95;;;2.60;;
19151;SDS011;9708;53.114;9.388;2022-09-12T11:06:13;3.83;;;2.45;;
19151;SDS011;9708;53.114;9.388;2022-09-12T11:08:50;4.85;;;2.83;;
19151;SDS011;9708;53.114;9.388;2022-09-12T11:11:29;4.65;;;2.33;;
19151;SDS011;9708;53.114;9.388;2022-09-12T11:14:09;5.85;;;3.30;;
19151;SDS011;9708;53.114;9.388;2022-09-12T11:16:50;3.40;;;2.13;;
19151;SDS011;9708;53.114;9.388;2022-09-12T11:19:36;4.97;;;2.97;;
19151;SDS011;9708;53.114;9.388;2022-09-12T11:22:22;3.63;;;2.65;;
19151;SDS011;9708;53.114;9.388;2022-09-12T11:25:11;4.85;;;3.15;;
19151;SDS011;9708;53.114;9.388;2022-09-12T11:27:52;5.50;;;2.78;;
19151;SDS011;9708;53.114;9.388;2022-09-12T11:30:30;3.63;;;2.67;;
19151;SDS011;9708;53.114;9.388;2022-09-12T11:33:06;6.13;;;3.78;;
19151;SDS011;9708;53.114;9.388;2022-09-12T11:35:46;4.13;;;2.35;;
19151;SDS011;9708;53.114;9.388;2022-09-12T11:38:23;4.60;;;2.90;;
19151;SDS011;9708;53.114;9.388;2022-09-12T11:41:14;6.10;;;3.20;;
19151;SDS011;9708;53.114;9.388;2022-09-12T11:43:47;4.40;;;2.28;;
19151;SDS011;9708;53.114;9.388;2022-09-12T11:46:18;6.30;;;3.30;;
19151;SDS011;9708;53.114;9.388;2022-09-12T11:48:50;3.58;;;1.98;;
19151;SDS011;9708;53.114;9.388;2022-09-12T11:51:23;3.03;;;2.55;;
19151;SDS011;9708;53.114;9.388;2022-09-12T11:53:58;5.35;;;3.17;;
19151;SDS011;9708;53.114;9.388;2022-09-12T11:56:28;5.45;;;2.78;;
19151;SDS011;9708;53.114;9.388;2022-09-12T11:58:57;2.53;;;2.33;;
19151;SDS011;9708;53.114;9.388;2022-09-12T12:01:30;2.38;;;1.88;;
19151;SDS011;9708;53.114;9.388;2022-09-12T12:04:00;4.90;;;2.88;;
19151;SDS011;9708;53.114;9.388;2022-09-12T12:06:36;4.32;;;2.95;;
19151;SDS011;9708;53.114;9.388;2022-09-12T12:09:13;5.28;;;2.85;;
19151;SDS011;9708;53.114;9.388;2022-09-12T12:11:41;2.70;;;2.08;;
19151;SDS011;9708;53.114;9.388;2022-09-12T12:14:12;8.55;;;2.88;;
19151;SDS011;9708;53.114;9.388;2022-09-12T12:16:43;5.22;;;3.25;;
19151;SDS011;9708;53.114;9.388;2022-09-12T12:19:20;4.25;;;2.60;;
19151;SDS011;9708;53.114;9.388;2022-09-12T12:21:56;4.63;;;2.92;;
19151;SDS011;9708;53.114;9.388;2022-09-12T12:24:53;5.75;;;3.35;;
19151;SDS011;9708;53.114;9.388;2022-09-12T12:27:45;3.33;;;2.67;;
19151;SDS011;9708;53.114;9.388;2022-09-12T12:36:28;4.13;;;2.70;;
19151;SDS011;9708;53.114;9.388;2022-09-12T12:38:58;3.35;;;2.35;;
19151;SDS011;9708;53.114;9.388;2022-09-12T12:41:46;4.05;;;2.88;;
19151;SDS011;9708;53.114;9.388;2022-09-12T12:47:15;2.22;;;2.03;;
19151;SDS011;9708;53.114;9.388;2022-09-12T12:49:48;3.25;;;2.20;;
19151;SDS011;9708;53.114;9.388;2022-09-12T12:52:16;3.85;;;2.38;;
19151;SDS011;9708;53.114;9.388;2022-09-12T12:54:48;3.92;;;2.40;;
19151;SDS011;9708;53.114;9.388;2022-09-12T12:57:21;3.00;;;2.13;;
19151;SDS011;9708;53.114;9.388;2022-09-12T12:59:54;6.80;;;2.22;;
19151;SDS011;9708;53.114;9.388;2022-09-12T13:02:26;4.18;;;2.03;;
19151;SDS011;9708;53.114;9.388;2022-09-12T13:04:57;3.97;;;2.22;;
19151;SDS011;9708;53.114;9.388;2022-09-12T13:07:29;3.88;;;2.38;;
19151;SDS011;9708;53.114;9.388;2022-09-12T13:09:58;2.63;;;1.70;;
19151;SDS011;9708;53.114;9.388;2022-09-12T13:12:28;1.33;;;1.23;;
19151;SDS011;9708;53.114;9.388;2022-09-12T13:14:57;2.97;;;1.70;;
19151;SDS011;9708;53.114;9.388;2022-09-12T13:17:30;2.33;;;1.80;;
19151;SDS011;9708;53.114;9.388;2022-09-12T13:20:04;1.67;;;1.48;;
19151;SDS011;9708;53.114;9.388;2022-09-12T13:22:48;3.30;;;1.83;;
19151;SDS011;9708;53.114;9.388;2022-09-12T13:25:24;2.63;;;1.45;;
19151;SDS011;9708;53.114;9.388;2022-09-12T13:27:58;1.75;;;1.35;;
19151;SDS011;9708;53.114;9.388;2022-09-12T13:30:30;4.72;;;2.08;;
19151;SDS011;9708;53.114;9.388;2022-09-12T13:33:03;3.55;;;1.60;;
19151;SDS011;9708;53.114;9.388;2022-09-12T13:35:45;2.60;;;1.70;;
19151;SDS011;9708;53.114;9.388;2022-09-12T13:38:29;1.20;;;1.10;;
19151;SDS011;9708;53.114;9.388;2022-09-12T13:41:08;1.52;;;1.20;;
19151;SDS011;9708;53.114;9.388;2022-09-12T13:43:48;2.55;;;1.50;;
19151;SDS011;9708;53.114;9.388;2022-09-12T13:46:16;2.47;;;1.85;;
19151;SDS011;9708;53.114;9.388;2022-09-12T13:48:54;2.90;;;2.13;;
19151;SDS011;9708;53.114;9.388;2022-09-12T13:51:22;3.17;;;2.30;;
19151;SDS011;9708;53.114;9.388;2022-09-12T13:53:50;2.25;;;1.95;;
19151;SDS011;9708;53.114;9.388;2022-09-12T13:56:20;2.15;;;1.38;;
19151;SDS011;9708;53.114;9.388;2022-09-12T13:58:51;1.60;;;1.20;;
19151;SDS011;9708;53.114;9.388;2022-09-12T14:21:55;4.07;;;2.30;;
19151;SDS011;9708;53.114;9.388;2022-09-12T14:24:25;1.40;;;1.30;;
19151;SDS011;9708;53.114;9.388;2022-09-12T14:26:53;2.28;;;1.60;;
19151;SDS011;9708;53.114;9.388;2022-09-12T14:29:21;1.27;;;1.17;;
19151;SDS011;9708;53.114;9.388;2022-09-12T14:31:59;2.30;;;1.40;;
19151;SDS011;9708;53.114;9.388;2022-09-12T14:34:26;1.45;;;1.30;;
19151;SDS011;9708;53.114;9.388;2022-09-12T14:36:54;2.00;;;1.45;;
19151;SDS011;9708;53.114;9.388;2022-09-12T14:39:23;1.33;;;1.23;;
19151;SDS011;9708;53.114;9.388;2022-09-12T14:42:00;1.30;;;1.20;;
19151;SDS011;9708;53.114;9.388;2022-09-12T14:44:30;1.75;;;1.40;;
19151;SDS011;9708;53.114;9.388;2022-09-12T14:47:00;1.75;;;1.20;;
19151;SDS011;9708;53.114;9.388;2022-09-12T14:49:37;0.82;;;0.82;;
19151;SDS011;9708;53.114;9.388;2022-09-12T14:54:58;1.38;;;1.27;;
19151;SDS011;9708;53.114;9.388;2022-09-12T14:57:31;1.73;;;1.05;;
19151;SDS011;9708;53.114;9.388;2022-09-12T15:00:14;1.48;;;1.38;;
19151;SDS011;9708;53.114;9.388;2022-09-12T15:02:48;2.25;;;1.00;;
19151;SDS011;9708;53.114;9.388;2022-09-12T15:05:18;1.10;;;1.08;;
19151;SDS011;9708;53.114;9.388;2022-09-12T15:07:50;1.92;;;1.15;;
19151;SDS011;9708;53.114;9.388;2022-09-12T15:10:22;1.75;;;1.20;;
19151;SDS011;9708;53.114;9.388;2022-09-12T15:13:02;1.45;;;1.35;;
19151;SDS011;9708;53.114;9.388;2022-09-12T15:15:44;1.73;;;1.13;;
19151;SDS011;9708;53.114;9.388;2022-09-12T15:18:12;1.10;;;0.98;;
19151;SDS011;9708;53.114;9.388;2022-09-12T15:20:39;1.40;;;1.30;;
19151;SDS011;9708;53.114;9.388;2022-09-12T15:23:09;1.63;;;1.05;;
19151;SDS011;9708;53.114;9.388;2022-09-12T15:25:42;1.95;;;1.23;;
19151;SDS011;9708;53.114;9.388;2022-09-12T15:28:12;1.27;;;1.20;;
19151;SDS011;9708;53.114;9.388;2022-09-12T15:30:42;1.35;;;1.25;;
19151;SDS011;9708;53.114;9.388;2022-09-12T15:33:09;1.20;;;1.10;;
19151;SDS011;9708;53.114;9.388;2022-09-12T15:35:37;1.63;;;0.95;;
19151;SDS011;9708;53.114;9.388;2022-09-12T15:38:04;1.73;;;1.50;;
19151;SDS011;9708;53.114;9.388;2022-09-12T15:40:30;0.90;;;0.90;;
19151;SDS011;9708;53.114;9.388;2022-09-12T15:42:59;1.40;;;1.30;;
19151;SDS011;9708;53.114;9.388;2022-09-12T15:45:26;0.88;;;0.88;;
19151;SDS011;9708;53.114;9.388;2022-09-12T15:47:55;1.13;;;1.02;;
19151;SDS011;9708;53.114;9.388;2022-09-12T15:50:22;1.17;;;0.95;;
19151;SDS011;9708;53.114;9.388;2022-09-12T15:52:49;1.40;;;1.00;;
19151;SDS011;9708;53.114;9.388;2022-09-12T15:55:18;1.13;;;1.02;;
19151;SDS011;9708;53.114;9.388;2022-09-12T15:57:47;1.08;;;0.95;;
19151;SDS011;9708;53.114;9.388;2022-09-12T16:00:15;2.65;;;2.45;;
19151;SDS011;9708;53.114;9.388;2022-09-12T16:02:43;0.93;;;0.93;;